sensor_id;sensor_type;location;lat;lon;timestamp;pressure;altitude;pressure_sealevel;temperature;humidity
66627;BME280;53498;50.422;14.912;2023-03-15T00:02:04;98287.56;;;2.52;93.13
66627;BME280;53498;50.422;14.912;2023-03-15T00:04:30;98299.53;;;2.52;92.87
66627;BME280;53498;50.422;14.912;2023-03-15T00:06:59;98300.31;;;2.48;94.17
66627;BME280;53498;50.422;14.912;2023-03-15T00:09:24;98297.75;;;2.49;96.35
66627;BME280;53498;50.422;14.912;2023-03-15T00:11:51;98302.00;;;2.47;94.07
66627;BME280;53498;50.422;14.912;2023-03-15T00:14:19;98301.97;;;2.46;97.00
66627;BME280;53498;50.422;14.912;2023-03-15T00:16:45;98301.84;;;2.40;95.94
66627;BME280;53498;50.422;14.912;2023-03-15T00:19:10;98300.06;;;2.36;95.23
66627;BME280;53498;50.422;14.912;2023-03-15T00:21:36;98304.38;;;2.38;96.16
66627;BME280;53498;50.422;14.912;2023-03-15T00:24:02;98303.44;;;2.33;93.76
66627;BME280;53498;50.422;14.912;2023-03-15T00:26:27;98306.06;;;2.36;94.01
66627;BME280;53498;50.422;14.912;2023-03-15T00:28:53;98303.44;;;2.33;95.15
66627;BME280;53498;50.422;14.912;2023-03-15T00:31:22;98311.13;;;2.33;95.85
66627;BME280;53498;50.422;14.912;2023-03-15T00:33:48;98312.72;;;2.28;95.07
66627;BME280;53498;50.422;14.912;2023-03-15T00:36:14;98314.28;;;2.20;96.80
66627;BME280;53498;50.422;14.912;2023-03-15T00:38:40;98315.16;;;2.22;94.75
66627;BME280;53498;50.422;14.912;2023-03-15T00:41:13;98319.50;;;2.23;95.25
66627;BME280;53498;50.422;14.912;2023-03-15T00:43:40;98314.34;;;2.23;94.42
66627;BME280;53498;50.422;14.912;2023-03-15T00:46:06;98317.78;;;2.25;95.84
66627;BME280;53498;50.422;14.912;2023-03-15T00:48:33;98320.09;;;2.13;95.86
66627;BME280;53498;50.422;14.912;2023-03-15T00:53:31;98329.47;;;2.11;93.96
66627;BME280;53498;50.422;14.912;2023-03-15T00:55:57;98326.72;;;2.01;94.99
66627;BME280;53498;50.422;14.912;2023-03-15T00:58:23;98342.84;;;1.96;94.55
66627;BME280;53498;50.422;14.912;2023-03-15T01:00:48;98335.78;;;1.87;93.56
66627;BME280;53498;50.422;14.912;2023-03-15T01:03:14;98342.72;;;1.91;93.77
66627;BME280;53498;50.422;14.912;2023-03-15T01:05:39;98343.28;;;1.78;92.71
66627;BME280;53498;50.422;14.912;2023-03-15T01:08:05;98348.53;;;1.82;94.29
66627;BME280;53498;50.422;14.912;2023-03-15T01:10:34;98349.38;;;1.83;97.27
66627;BME280;53498;50.422;14.912;2023-03-15T01:12:59;98350.97;;;1.78;95.41
66627;BME280;53498;50.422;14.912;2023-03-15T01:15:25;98349.31;;;1.80;96.93
66627;BME280;53498;50.422;14.912;2023-03-15T01:17:51;98354.50;;;1.83;97.08
66627;BME280;53498;50.422;14.912;2023-03-15T01:20:16;98357.91;;;1.82;96.01
66627;BME280;53498;50.422;14.912;2023-03-15T01:22:42;98360.66;;;1.91;95.36
66627;BME280;53498;50.422;14.912;2023-03-15T01:25:08;98353.03;;;1.93;96.06
66627;BME280;53498;50.422;14.912;2023-03-15T01:27:34;98365.06;;;1.95;96.60
66627;BME280;53498;50.422;14.912;2023-03-15T01:29:59;98376.25;;;1.99;95.09
66627;BME280;53498;50.422;14.912;2023-03-15T01:32:26;98366.78;;;1.96;95.33
66627;BME280;53498;50.422;14.912;2023-03-15T01:34:51;98364.34;;;2.02;95.76
66627;BME280;53498;50.422;14.912;2023-03-15T01:37:17;98377.09;;;1.98;95.96
66627;BME280;53498;50.422;14.912;2023-03-15T01:39:43;98376.00;;;1.88;96.41
66627;BME280;53498;50.422;14.912;2023-03-15T01:42:09;98376.75;;;1.84;97.31
66627;BME280;53498;50.422;14.912;2023-03-15T01:44:54;98374.75;;;1.72;96.06
66627;BME280;53498;50.422;14.912;2023-03-15T01:47:21;98378.38;;;1.80;96.37
66627;BME280;53498;50.422;14.912;2023-03-15T01:49:56;98381.88;;;1.84;98.36
66627;BME280;53498;50.422;14.912;2023-03-15T01:52:26;98380.88;;;1.77;96.04
66627;BME280;53498;50.422;14.912;2023-03-15T01:54:59;98375.72;;;1.76;98.08
66627;BME280;53498;50.422;14.912;2023-03-15T01:57:30;98376.53;;;1.75;95.64
66627;BME280;53498;50.422;14.912;2023-03-15T02:00:05;98373.91;;;1.72;98.99
66627;BME280;53498;50.422;14.912;2023-03-15T02:02:42;98380.78;;;1.73;99.20
66627;BME280;53498;50.422;14.912;2023-03-15T02:05:15;98378.16;;;1.70;96.70
66627;BME280;53498;50.422;14.912;2023-03-15T02:07:43;98377.31;;;1.71;97.48
66627;BME280;53498;50.422;14.912;2023-03-15T02:10:17;98375.56;;;1.70;96.00
66627;BME280;53498;50.422;14.912;2023-03-15T02:12:46;98372.09;;;1.68;95.06
66627;BME280;53498;50.422;14.912;2023-03-15T02:15:15;98375.66;;;1.73;95.51
66627;BME280;53498;50.422;14.912;2023-03-15T02:17:46;98378.38;;;1.79;95.58
66627;BME280;53498;50.422;14.912;2023-03-15T02:23:19;98408.00;;;1.69;97.16
66627;BME280;53498;50.422;14.912;2023-03-15T02:25:56;98419.25;;;1.73;93.13
66627;BME280;53498;50.422;14.912;2023-03-15T02:28:26;98416.13;;;1.86;94.59
66627;BME280;53498;50.422;14.912;2023-03-15T02:30:52;98410.16;;;1.87;93.49
66627;BME280;53498;50.422;14.912;2023-03-15T02:33:31;98409.22;;;1.83;92.21
66627;BME280;53498;50.422;14.912;2023-03-15T02:36:27;98401.47;;;1.80;94.46
66627;BME280;53498;50.422;14.912;2023-03-15T02:38:55;98402.03;;;1.69;92.54
66627;BME280;53498;50.422;14.912;2023-03-15T02:41:25;98396.91;;;1.69;95.46
66627;BME280;53498;50.422;14.912;2023-03-15T02:43:55;98398.53;;;1.65;94.93
66627;BME280;53498;50.422;14.912;2023-03-15T02:46:23;98402.72;;;1.61;93.51
66627;BME280;53498;50.422;14.912;2023-03-15T02:48:50;98402.69;;;1.60;96.64
66627;BME280;53498;50.422;14.912;2023-03-15T02:51:20;98407.59;;;1.52;97.05
66627;BME280;53498;50.422;14.912;2023-03-15T02:53:47;98411.16;;;1.57;95.95
66627;BME280;53498;50.422;14.912;2023-03-15T02:56:13;98403.94;;;1.43;95.99
66627;BME280;53498;50.422;14.912;2023-03-15T02:58:39;98404.72;;;1.40;97.19
66627;BME280;53498;50.422;14.912;2023-03-15T03:01:05;98412.31;;;1.35;96.06
66627;BME280;53498;50.422;14.912;2023-03-15T03:03:30;98432.59;;;1.28;95.96
66627;BME280;53498;50.422;14.912;2023-03-15T03:05:56;98439.22;;;1.20;94.99
66627;BME280;53498;50.422;14.912;2023-03-15T03:08:22;98449.34;;;1.15;95.83
66627;BME280;53498;50.422;14.912;2023-03-15T03:10:47;98457.25;;;1.23;96.51
66627;BME280;53498;50.422;14.912;2023-03-15T03:13:13;98468.13;;;1.15;95.47
66627;BME280;53498;50.422;14.912;2023-03-15T03:15:39;98462.94;;;1.12;96.64
66627;BME280;53498;50.422;14.912;2023-03-15T03:18:05;98469.84;;;1.15;96.89
66627;BME280;53498;50.422;14.912;2023-03-15T03:20:30;98472.09;;;1.04;96.37
66627;BME280;53498;50.422;14.912;2023-03-15T03:22:56;98463.50;;;1.02;96.81
66627;BME280;53498;50.422;14.912;2023-03-15T03:25:22;98459.88;;;0.94;97.32
66627;BME280;53498;50.422;14.912;2023-03-15T03:27:52;98463.25;;;0.93;97.31
66627;BME280;53498;50.422;14.912;2023-03-15T03:30:21;98473.56;;;0.96;98.71
66627;BME280;53498;50.422;14.912;2023-03-15T03:32:47;98482.94;;;0.94;98.86
66627;BME280;53498;50.422;14.912;2023-03-15T03:35:12;98480.50;;;1.00;99.91
66627;BME280;53498;50.422;14.912;2023-03-15T03:37:38;98476.38;;;1.04;100.00
66627;BME280;53498;50.422;14.912;2023-03-15T03:40:04;98479.72;;;1.03;99.65
66627;BME280;53498;50.422;14.912;2023-03-15T03:42:34;98493.41;;;1.03;98.97
66627;BME280;53498;50.422;14.912;2023-03-15T03:44:59;98490.72;;;0.99;98.73
66627;BME280;53498;50.422;14.912;2023-03-15T03:47:25;98497.38;;;0.92;96.71
66627;BME280;53498;50.422;14.912;2023-03-15T03:49:51;98497.53;;;0.98;97.96
66627;BME280;53498;50.422;14.912;2023-03-15T03:52:16;98505.41;;;1.04;97.64
66627;BME280;53498;50.422;14.912;2023-03-15T03:54:42;98513.00;;;1.01;97.10
66627;BME280;53498;50.422;14.912;2023-03-15T03:57:09;98513.19;;;1.09;98.25
66627;BME280;53498;50.422;14.912;2023-03-15T03:59:34;98521.56;;;1.03;98.99
66627;BME280;53498;50.422;14.912;2023-03-15T04:02:00;98529.59;;;1.15;99.42
66627;BME280;53498;50.422;14.912;2023-03-15T04:04:26;98536.69;;;1.24;98.49
66627;BME280;53498;50.422;14.912;2023-03-15T04:06:51;98547.53;;;1.15;98.01
66627;BME280;53498;50.422;14.912;2023-03-15T04:09:18;98549.75;;;1.32;97.22
66627;BME280;53498;50.422;14.912;2023-03-15T04:11:46;98550.72;;;1.37;97.07
66627;BME280;53498;50.422;14.912;2023-03-15T04:14:13;98551.16;;;1.52;97.32
66627;BME280;53498;50.422;14.912;2023-03-15T04:16:39;98554.50;;;1.50;96.08
66627;BME280;53498;50.422;14.912;2023-03-15T04:19:06;98557.81;;;1.46;95.82
66627;BME280;53498;50.422;14.912;2023-03-15T04:21:32;98563.94;;;1.51;97.15
66627;BME280;53498;50.422;14.912;2023-03-15T04:23:58;98569.59;;;1.39;96.03
66627;BME280;53498;50.422;14.912;2023-03-15T04:26:25;98573.09;;;1.43;95.56
66627;BME280;53498;50.422;14.912;2023-03-15T04:28:54;98576.59;;;1.46;94.86
66627;BME280;53498;50.422;14.912;2023-03-15T04:31:21;98582.75;;;1.51;94.59
66627;BME280;53498;50.422;14.912;2023-03-15T04:33:46;98585.41;;;1.56;95.18
66627;BME280;53498;50.422;14.912;2023-03-15T04:36:12;98582.75;;;1.51;95.19
66627;BME280;53498;50.422;14.912;2023-03-15T04:38:46;98581.13;;;1.55;97.25
66627;BME280;53498;50.422;14.912;2023-03-15T04:41:16;98591.56;;;1.61;97.51
66627;BME280;53498;50.422;14.912;2023-03-15T04:43:42;98598.38;;;1.60;97.15
66627;BME280;53498;50.422;14.912;2023-03-15T04:46:08;98600.28;;;1.68;98.27
66627;BME280;53498;50.422;14.912;2023-03-15T04:48:34;98601.97;;;1.67;97.70
66627;BME280;53498;50.422;14.912;2023-03-15T04:51:00;98590.88;;;1.68;98.12
66627;BME280;53498;50.422;14.912;2023-03-15T04:53:26;98603.53;;;1.62;97.55
66627;BME280;53498;50.422;14.912;2023-03-15T04:55:52;98596.78;;;1.66;97.95
66627;BME280;53498;50.422;14.912;2023-03-15T04:58:17;98603.50;;;1.60;98.13
66627;BME280;53498;50.422;14.912;2023-03-15T05:00:43;98609.44;;;1.59;99.03
66627;BME280;53498;50.422;14.912;2023-03-15T05:03:12;98602.59;;;1.58;99.46
66627;BME280;53498;50.422;14.912;2023-03-15T05:05:38;98601.84;;;1.62;99.78
66627;BME280;53498;50.422;14.912;2023-03-15T05:08:03;98605.22;;;1.60;100.00
66627;BME280;53498;50.422;14.912;2023-03-15T05:10:29;98611.22;;;1.62;99.90
66627;BME280;53498;50.422;14.912;2023-03-15T05:12:55;98616.31;;;1.60;98.39
66627;BME280;53498;50.422;14.912;2023-03-15T05:15:21;98619.88;;;1.66;97.48
66627;BME280;53498;50.422;14.912;2023-03-15T05:17:46;98624.19;;;1.67;97.29
66627;BME280;53498;50.422;14.912;2023-03-15T05:20:22;98625.06;;;1.67;96.93
66627;BME280;53498;50.422;14.912;2023-03-15T05:22:47;98618.88;;;1.60;95.68
66627;BME280;53498;50.422;14.912;2023-03-15T05:25:13;98631.81;;;1.65;95.55
66627;BME280;53498;50.422;14.912;2023-03-15T05:27:40;98633.31;;;1.57;94.25
66627;BME280;53498;50.422;14.912;2023-03-15T05:30:07;98635.81;;;1.55;95.38
66627;BME280;53498;50.422;14.912;2023-03-15T05:32:32;98634.28;;;1.60;93.49
66627;BME280;53498;50.422;14.912;2023-03-15T05:35:05;98636.06;;;1.63;91.70
66627;BME280;53498;50.422;14.912;2023-03-15T05:37:32;98639.41;;;1.60;88.89
66627;BME280;53498;50.422;14.912;2023-03-15T05:39:58;98646.06;;;1.55;89.88
66627;BME280;53498;50.422;14.912;2023-03-15T05:42:24;98663.84;;;1.49;89.87
66627;BME280;53498;50.422;14.912;2023-03-15T05:44:54;98656.22;;;1.51;89.48
66627;BME280;53498;50.422;14.912;2023-03-15T05:47:20;98669.13;;;1.54;91.40
66627;BME280;53498;50.422;14.912;2023-03-15T05:49:46;98677.78;;;1.59;93.11
66627;BME280;53498;50.422;14.912;2023-03-15T05:52:12;98681.84;;;1.51;90.58
66627;BME280;53498;50.422;14.912;2023-03-15T05:54:38;98685.22;;;1.50;93.65
66627;BME280;53498;50.422;14.912;2023-03-15T05:57:04;98700.69;;;1.53;92.85
66627;BME280;53498;50.422;14.912;2023-03-15T05:59:29;98692.91;;;1.50;92.57
66627;BME280;53498;50.422;14.912;2023-03-15T06:01:55;98697.72;;;1.39;91.63
66627;BME280;53498;50.422;14.912;2023-03-15T06:04:21;98698.03;;;1.50;93.26
66627;BME280;53498;50.422;14.912;2023-03-15T06:06:47;98711.63;;;1.47;92.38
66627;BME280;53498;50.422;14.912;2023-03-15T06:09:13;98709.78;;;1.43;93.76
66627;BME280;53498;50.422;14.912;2023-03-15T06:11:38;98720.97;;;1.45;93.09
66627;BME280;53498;50.422;14.912;2023-03-15T06:14:04;98723.53;;;1.45;92.91
66627;BME280;53498;50.422;14.912;2023-03-15T06:16:30;98726.13;;;1.47;94.33
66627;BME280;53498;50.422;14.912;2023-03-15T06:18:55;98729.47;;;1.44;94.56
66627;BME280;53498;50.422;14.912;2023-03-15T06:21:21;98722.66;;;1.45;95.24
66627;BME280;53498;50.422;14.912;2023-03-15T06:23:46;98727.72;;;1.43;94.73
66627;BME280;53498;50.422;14.912;2023-03-15T06:26:12;98737.09;;;1.41;93.12
66627;BME280;53498;50.422;14.912;2023-03-15T06:28:40;98745.13;;;1.53;94.74
66627;BME280;53498;50.422;14.912;2023-03-15T06:31:10;98758.88;;;1.55;93.98
66627;BME280;53498;50.422;14.912;2023-03-15T06:33:37;98765.88;;;1.61;94.28
66627;BME280;53498;50.422;14.912;2023-03-15T06:36:02;98771.22;;;1.69;93.47
66627;BME280;53498;50.422;14.912;2023-03-15T06:38:31;98776.03;;;1.85;92.18
66627;BME280;53498;50.422;14.912;2023-03-15T06:40:57;98779.09;;;2.03;90.85
66627;BME280;53498;50.422;14.912;2023-03-15T06:43:26;98786.59;;;1.69;89.06
66627;BME280;53498;50.422;14.912;2023-03-15T06:45:51;98788.47;;;1.73;90.75
66627;BME280;53498;50.422;14.912;2023-03-15T06:48:18;98796.34;;;1.79;91.71
66627;BME280;53498;50.422;14.912;2023-03-15T06:50:43;98800.28;;;1.96;91.47
66627;BME280;53498;50.422;14.912;2023-03-15T06:53:09;98801.47;;;2.07;91.18
66627;BME280;53498;50.422;14.912;2023-03-15T06:55:35;98797.50;;;2.49;91.09
66627;BME280;53498;50.422;14.912;2023-03-15T06:58:00;98799.06;;;2.75;89.85
66627;BME280;53498;50.422;14.912;2023-03-15T07:00:26;98803.41;;;2.78;89.38
66627;BME280;53498;50.422;14.912;2023-03-15T07:02:52;98807.59;;;2.73;88.33
66627;BME280;53498;50.422;14.912;2023-03-15T07:05:17;98813.31;;;2.96;87.57
66627;BME280;53498;50.422;14.912;2023-03-15T07:07:43;98816.16;;;3.07;86.34
66627;BME280;53498;50.422;14.912;2023-03-15T07:10:09;98815.75;;;3.23;86.29
66627;BME280;53498;50.422;14.912;2023-03-15T07:12:35;98825.69;;;3.11;83.88
66627;BME280;53498;50.422;14.912;2023-03-15T07:15:00;98817.84;;;3.05;84.80
66627;BME280;53498;50.422;14.912;2023-03-15T07:17:26;98812.47;;;3.30;85.79
66627;BME280;53498;50.422;14.912;2023-03-15T07:19:51;98823.06;;;3.42;86.23
66627;BME280;53498;50.422;14.912;2023-03-15T07:22:17;98825.00;;;3.51;86.38
66627;BME280;53498;50.422;14.912;2023-03-15T07:24:43;98827.97;;;3.69;86.34
66627;BME280;53498;50.422;14.912;2023-03-15T07:27:12;98831.44;;;3.70;82.99
66627;BME280;53498;50.422;14.912;2023-03-15T07:29:38;98832.81;;;3.56;84.28
66627;BME280;53498;50.422;14.912;2023-03-15T07:32:04;98834.53;;;3.93;87.12
66627;BME280;53498;50.422;14.912;2023-03-15T07:34:29;98833.00;;;4.01;82.67
66627;BME280;53498;50.422;14.912;2023-03-15T07:36:55;98836.53;;;4.06;83.46
66627;BME280;53498;50.422;14.912;2023-03-15T07:39:20;98838.38;;;4.12;81.12
66627;BME280;53498;50.422;14.912;2023-03-15T07:41:48;98836.88;;;4.22;80.10
66627;BME280;53498;50.422;14.912;2023-03-15T07:44:13;98840.03;;;4.49;80.02
66627;BME280;53498;50.422;14.912;2023-03-15T07:46:39;98842.13;;;4.67;81.41
66627;BME280;53498;50.422;14.912;2023-03-15T07:49:05;98844.81;;;4.32;78.58
66627;BME280;53498;50.422;14.912;2023-03-15T07:51:31;98851.94;;;4.44;78.21
66627;BME280;53498;50.422;14.912;2023-03-15T07:53:56;98845.13;;;4.46;77.05
66627;BME280;53498;50.422;14.912;2023-03-15T07:56:22;98846.13;;;4.53;77.11
66627;BME280;53498;50.422;14.912;2023-03-15T07:58:48;98844.72;;;4.69;74.13
66627;BME280;53498;50.422;14.912;2023-03-15T08:01:14;98849.47;;;4.93;73.95
66627;BME280;53498;50.422;14.912;2023-03-15T08:03:39;98853.84;;;4.95;71.67
66627;BME280;53498;50.422;14.912;2023-03-15T08:06:06;98851.94;;;5.33;73.22
66627;BME280;53498;50.422;14.912;2023-03-15T08:08:32;98848.81;;;5.04;68.74
66627;BME280;53498;50.422;14.912;2023-03-15T08:10:57;98857.84;;;4.81;71.89
66627;BME280;53498;50.422;14.912;2023-03-15T08:13:24;98852.75;;;4.85;71.01
66627;BME280;53498;50.422;14.912;2023-03-15T08:15:50;98858.38;;;5.10;69.57
66627;BME280;53498;50.422;14.912;2023-03-15T08:18:15;98861.25;;;5.25;67.42
66627;BME280;53498;50.422;14.912;2023-03-15T08:20:41;98862.09;;;5.26;64.11
66627;BME280;53498;50.422;14.912;2023-03-15T08:23:07;98863.66;;;4.71;61.00
66627;BME280;53498;50.422;14.912;2023-03-15T08:25:34;98866.09;;;4.64;63.45
66627;BME280;53498;50.422;14.912;2023-03-15T08:28:01;98869.63;;;4.68;61.94
66627;BME280;53498;50.422;14.912;2023-03-15T08:30:26;98860.34;;;4.35;62.46
66627;BME280;53498;50.422;14.912;2023-03-15T08:32:52;98857.47;;;4.22;63.23
66627;BME280;53498;50.422;14.912;2023-03-15T08:35:20;98861.66;;;4.57;66.67
66627;BME280;53498;50.422;14.912;2023-03-15T08:37:46;98875.94;;;4.85;64.85
66627;BME280;53498;50.422;14.912;2023-03-15T08:40:13;98875.56;;;5.08;67.80
66627;BME280;53498;50.422;14.912;2023-03-15T08:42:39;98881.91;;;5.27;62.32
66627;BME280;53498;50.422;14.912;2023-03-15T08:45:06;98879.97;;;5.15;58.77
66627;BME280;53498;50.422;14.912;2023-03-15T08:47:35;98878.63;;;4.90;59.26
66627;BME280;53498;50.422;14.912;2023-03-15T08:50:07;98876.50;;;4.69;58.22
66627;BME280;53498;50.422;14.912;2023-03-15T08:52:33;98877.28;;;4.65;62.64
66627;BME280;53498;50.422;14.912;2023-03-15T08:54:59;98883.91;;;4.54;64.88
66627;BME280;53498;50.422;14.912;2023-03-15T08:57:25;98886.06;;;4.75;63.61
66627;BME280;53498;50.422;14.912;2023-03-15T08:59:54;98889.25;;;5.07;63.35
66627;BME280;53498;50.422;14.912;2023-03-15T09:02:20;98885.63;;;5.43;62.38
66627;BME280;53498;50.422;14.912;2023-03-15T09:04:47;98885.94;;;5.61;63.84
66627;BME280;53498;50.422;14.912;2023-03-15T09:07:13;98889.31;;;5.57;56.42
66627;BME280;53498;50.422;14.912;2023-03-15T09:09:40;98891.94;;;5.60;59.54
66627;BME280;53498;50.422;14.912;2023-03-15T09:12:05;98886.06;;;5.67;60.54
66627;BME280;53498;50.422;14.912;2023-03-15T09:14:31;98886.13;;;5.72;58.85
66627;BME280;53498;50.422;14.912;2023-03-15T09:16:57;98883.47;;;5.67;58.02
66627;BME280;53498;50.422;14.912;2023-03-15T09:19:22;98886.94;;;5.69;56.94
66627;BME280;53498;50.422;14.912;2023-03-15T09:21:48;98877.31;;;5.61;57.29
66627;BME280;53498;50.422;14.912;2023-03-15T09:24:14;98878.31;;;5.67;58.04
66627;BME280;53498;50.422;14.912;2023-03-15T09:26:39;98887.19;;;5.85;57.82
66627;BME280;53498;50.422;14.912;2023-03-15T09:29:05;98891.66;;;5.95;57.95
66627;BME280;53498;50.422;14.912;2023-03-15T09:31:34;98894.34;;;6.01;56.56
66627;BME280;53498;50.422;14.912;2023-03-15T09:34:00;98890.44;;;6.29;56.06
66627;BME280;53498;50.422;14.912;2023-03-15T09:36:25;98892.25;;;6.33;56.72
66627;BME280;53498;50.422;14.912;2023-03-15T09:38:51;98897.78;;;6.59;54.91
66627;BME280;53498;50.422;14.912;2023-03-15T09:41:33;98893.91;;;6.28;54.78
66627;BME280;53498;50.422;14.912;2023-03-15T09:44:38;98887.97;;;6.34;56.45
66627;BME280;53498;50.422;14.912;2023-03-15T09:52:46;98887.75;;;6.85;56.10
66627;BME280;53498;50.422;14.912;2023-03-15T09:55:21;98891.34;;;6.97;54.34
66627;BME280;53498;50.422;14.912;2023-03-15T09:57:51;98887.81;;;6.90;53.68
66627;BME280;53498;50.422;14.912;2023-03-15T10:00:39;98892.94;;;6.87;55.61
66627;BME280;53498;50.422;14.912;2023-03-15T10:03:05;98903.88;;;6.66;53.64
66627;BME280;53498;50.422;14.912;2023-03-15T10:05:48;98895.47;;;6.18;54.19
66627;BME280;53498;50.422;14.912;2023-03-15T10:08:17;98891.19;;;6.20;52.76
66627;BME280;53498;50.422;14.912;2023-03-15T10:10:50;98898.47;;;6.47;53.72
66627;BME280;53498;50.422;14.912;2023-03-15T10:13:37;98896.00;;;6.57;55.49
66627;BME280;53498;50.422;14.912;2023-03-15T10:16:23;98900.78;;;6.94;54.07
66627;BME280;53498;50.422;14.912;2023-03-15T10:19:05;98894.94;;;6.41;55.55
66627;BME280;53498;50.422;14.912;2023-03-15T10:21:51;98893.66;;;6.13;55.72
66627;BME280;53498;50.422;14.912;2023-03-15T10:24:58;98900.78;;;6.28;56.41
66627;BME280;53498;50.422;14.912;2023-03-15T10:30:19;98902.97;;;6.64;56.13
66627;BME280;53498;50.422;14.912;2023-03-15T10:32:50;98902.00;;;6.53;56.98
66627;BME280;53498;50.422;14.912;2023-03-15T10:35:18;98898.41;;;6.43;57.57
66627;BME280;53498;50.422;14.912;2023-03-15T10:37:47;98896.44;;;6.26;56.97
66627;BME280;53498;50.422;14.912;2023-03-15T10:40:13;98893.03;;;6.28;60.24
66627;BME280;53498;50.422;14.912;2023-03-15T10:42:44;98900.69;;;6.21;55.63
66627;BME280;53498;50.422;14.912;2023-03-15T10:45:22;98900.78;;;6.28;58.48
66627;BME280;53498;50.422;14.912;2023-03-15T10:47:49;98896.34;;;6.17;58.06
66627;BME280;53498;50.422;14.912;2023-03-15T10:50:33;98887.69;;;6.15;56.20
66627;BME280;53498;50.422;14.912;2023-03-15T10:53:09;98890.44;;;6.29;55.54
66627;BME280;53498;50.422;14.912;2023-03-15T10:55:41;98895.53;;;6.23;56.08
66627;BME280;53498;50.422;14.912;2023-03-15T10:58:41;98893.75;;;6.20;58.67
66627;BME280;53498;50.422;14.912;2023-03-15T11:01:12;98893.22;;;6.40;56.91
66627;BME280;53498;50.422;14.912;2023-03-15T11:04:00;98899.25;;;6.40;56.71
66627;BME280;53498;50.422;14.912;2023-03-15T11:06:26;98890.22;;;6.75;57.88
66627;BME280;53498;50.422;14.912;2023-03-15T11:09:07;98880.34;;;7.16;57.63
66627;BME280;53498;50.422;14.912;2023-03-15T11:11:52;98878.06;;;7.48;56.23
66627;BME280;53498;50.422;14.912;2023-03-15T11:14:19;98883.19;;;7.40;55.70
66627;BME280;53498;50.422;14.912;2023-03-15T11:16:55;98881.00;;;6.98;56.11
66627;BME280;53498;50.422;14.912;2023-03-15T11:19:27;98886.44;;;7.21;57.09
66627;BME280;53498;50.422;14.912;2023-03-15T11:21:54;98876.44;;;7.59;55.82
66627;BME280;53498;50.422;14.912;2023-03-15T11:24:28;98879.03;;;7.61;55.76
66627;BME280;53498;50.422;14.912;2023-03-15T11:26:55;98878.72;;;7.26;55.19
66627;BME280;53498;50.422;14.912;2023-03-15T11:29:30;98882.09;;;7.18;55.15
66627;BME280;53498;50.422;14.912;2023-03-15T11:31:59;98881.53;;;6.69;56.12
66627;BME280;53498;50.422;14.912;2023-03-15T11:34:43;98876.22;;;6.60;56.38
66627;BME280;53498;50.422;14.912;2023-03-15T11:39:45;98881.28;;;6.51;59.19
66627;BME280;53498;50.422;14.912;2023-03-15T11:42:19;98880.97;;;6.30;58.89
66627;BME280;53498;50.422;14.912;2023-03-15T11:44:49;98872.31;;;6.26;58.91
66627;BME280;53498;50.422;14.912;2023-03-15T11:49:58;98877.50;;;6.24;59.12
66627;BME280;53498;50.422;14.912;2023-03-15T11:52:26;98871.59;;;6.35;56.75
66627;BME280;53498;50.422;14.912;2023-03-15T11:54:58;98869.47;;;6.70;59.31
66627;BME280;53498;50.422;14.912;2023-03-15T11:59:54;98868.25;;;7.16;54.24
66627;BME280;53498;50.422;14.912;2023-03-15T12:04:48;98869.16;;;7.20;56.09
66627;BME280;53498;50.422;14.912;2023-03-15T12:15:41;98858.72;;;7.09;56.38
66627;BME280;53498;50.422;14.912;2023-03-15T12:18:02;98858.84;;;7.23;56.79
66627;BME280;53498;50.422;14.912;2023-03-15T12:20:37;98877.09;;;7.37;55.57
66627;BME280;53498;50.422;14.912;2023-03-15T12:23:28;98864.50;;;6.88;53.66
66627;BME280;53498;50.422;14.912;2023-03-15T12:25:57;98859.25;;;6.81;53.28
66627;BME280;53498;50.422;14.912;2023-03-15T12:31:03;98857.25;;;7.39;57.21
66627;BME280;53498;50.422;14.912;2023-03-15T12:36:34;98857.75;;;7.01;56.57
66627;BME280;53498;50.422;14.912;2023-03-15T12:39:20;98862.16;;;7.10;58.74
66627;BME280;53498;50.422;14.912;2023-03-15T12:41:48;98859.50;;;7.02;56.64
66627;BME280;53498;50.422;14.912;2023-03-15T12:54:41;98861.31;;;7.09;58.93
66627;BME280;53498;50.422;14.912;2023-03-15T12:57:14;98867.06;;;6.84;58.28
66627;BME280;53498;50.422;14.912;2023-03-15T12:59:49;98869.84;;;7.02;58.77
66627;BME280;53498;50.422;14.912;2023-03-15T13:04:42;98879.88;;;6.76;58.14
66627;BME280;53498;50.422;14.912;2023-03-15T13:07:26;98876.38;;;6.71;59.71
66627;BME280;53498;50.422;14.912;2023-03-15T13:10:20;98884.16;;;6.72;59.15
66627;BME280;53498;50.422;14.912;2023-03-15T13:15:43;98910.31;;;5.77;67.14
66627;BME280;53498;50.422;14.912;2023-03-15T13:18:17;98914.56;;;5.75;69.10
66627;BME280;53498;50.422;14.912;2023-03-15T13:20:57;98937.25;;;4.99;73.69
66627;BME280;53498;50.422;14.912;2023-03-15T13:23:33;98946.81;;;4.26;81.22
66627;BME280;53498;50.422;14.912;2023-03-15T13:29:07;98971.16;;;3.04;94.80
66627;BME280;53498;50.422;14.912;2023-03-15T13:31:36;98962.53;;;3.02;100.00
66627;BME280;53498;50.422;14.912;2023-03-15T13:34:18;98940.50;;;3.12;100.00
66627;BME280;53498;50.422;14.912;2023-03-15T13:36:53;98941.19;;;3.36;100.00
66627;BME280;53498;50.422;14.912;2023-03-15T13:39:22;98937.16;;;3.46;100.00
66627;BME280;53498;50.422;14.912;2023-03-15T13:41:55;98941.53;;;3.50;100.00
66627;BME280;53498;50.422;14.912;2023-03-15T13:44:23;98944.03;;;3.47;100.00
66627;BME280;53498;50.422;14.912;2023-03-15T13:46:51;98937.47;;;3.58;100.00
66627;BME280;53498;50.422;14.912;2023-03-15T13:49:18;98938.25;;;3.56;100.00
66627;BME280;53498;50.422;14.912;2023-03-15T13:51:45;98933.91;;;3.53;100.00
66627;BME280;53498;50.422;14.912;2023-03-15T13:54:29;98938.16;;;3.51;100.00
66627;BME280;53498;50.422;14.912;2023-03-15T13:59:51;98936.81;;;4.02;100.00
66627;BME280;53498;50.422;14.912;2023-03-15T14:05:07;98941.44;;;4.15;100.00
66627;BME280;53498;50.422;14.912;2023-03-15T14:07:35;98934.50;;;4.50;100.00
66627;BME280;53498;50.422;14.912;2023-03-15T14:10:21;98940.72;;;4.60;100.00
66627;BME280;53498;50.422;14.912;2023-03-15T14:12:48;98944.44;;;4.33;100.00